Airfield :
LOGIN :

Register | Disclaimer

   EN    FR    IT 

 










Legend :    VFR   Marginal VFR   IFR   Intensive IFR   Very Intensive IFR
Visi :
Ceiling :
>= 8 km
>= 3000ft
5 to 8 km
1000 to 3000 ft
1500m to 5 km
500 to 1000 ft
800 to 1500m
200 to 500 ft
< 800m
< 200 ft
Symbols :   Thunderstorms  Fog  Heavy snow  Heavy precipitations  Wind > 20 kt
SIGMETs :     Misc.  Thunderstorms  Icing  Turbulence  Mountain Waves  Volcanic Ashes







- Airport Elevation : 309 ft
- IATA code : FNI
- Download approach charts


LFTW - Nîmes Garons

CURRENT METAR :
  • 230630Z AUTO 03008KT CAVOK 09/04 Q1026 NOSIG

EXPIRED METARs :
  • 230600Z AUTO 02008KT CAVOK 09/04 Q1026 NOSIG
  • 230530Z AUTO 03008KT CAVOK 10/04 Q1026 NOSIG
  • 230500Z AUTO 03007KT CAVOK 10/04 Q1026 NOSIG
  • 230430Z AUTO 03010KT 360V060 CAVOK 11/05 Q1026 NOSIG
  • 230400Z AUTO 02008KT CAVOK 11/05 Q1026 NOSIG

TAF TAF LFTW
Valid from the 23 at 03:00 until the 24 at 03:00 UTC


230200Z 2303/2403 03012KT CAVOK
BECMG 2312/2314 20012KT
TEMPO 2315/2403 FEW020 BKN040
BECMG 2318/2320 26008KT
BECMG 2323/2401 VRB05KT
No reported NOTAMs for that airfield.



MET'MAP, your aeronautical weather chart ! - Copyright ORBIFLY December 2007 - Disclaimer

ORBIFLY MET'MAP TEAM :

Programming & Development : Alexandra Zaïnal
Concept & Development : Baudouin d'Aumeries
Co-Development & Prog : Marc-Olivier Méhu
Technical & hardware support : Manuel Goepfert

Contact : metmap@orbifly.com




SOURCES & CREDITS :

   NOAA